createdAt,value
2018-01-08T00:01:29.160Z,13.53
2018-01-08T00:06:30.926Z,13.60
2018-01-08T00:11:33.175Z,12.10
2018-01-08T00:16:34.878Z,14.67
2018-01-08T00:21:36.465Z,14.13
2018-01-08T00:26:37.982Z,11.27
2018-01-08T00:31:39.559Z,11.23
2018-01-08T00:36:41.113Z,16.03
2018-01-08T00:41:42.633Z,13.00
2018-01-08T00:46:44.916Z,13.57
2018-01-08T00:51:47.172Z,12.00
2018-01-08T00:56:48.671Z,15.10
2018-01-08T01:01:50.232Z,11.40
2018-01-08T01:06:52.491Z,13.60
2018-01-08T01:11:54.042Z,14.80
2018-01-08T01:16:55.599Z,14.73
2018-01-08T01:21:57.203Z,11.30
2018-01-08T01:26:58.804Z,14.20
2018-01-08T01:32:00.329Z,14.50
2018-01-08T01:37:01.867Z,14.87
2018-01-08T01:42:03.500Z,15.10
2018-01-08T01:47:05.228Z,13.00
2018-01-08T01:52:06.780Z,16.57
2018-01-08T01:57:08.405Z,12.70
2018-01-08T02:02:10.824Z,15.53
2018-01-08T02:07:12.559Z,17.50
2018-01-08T02:12:14.824Z,15.43
2018-01-08T02:17:16.336Z,17.10
2018-01-08T02:22:17.911Z,17.77
2018-01-08T02:27:19.400Z,18.10
2018-01-08T02:32:20.969Z,17.33
2018-01-08T02:37:22.506Z,16.73
2018-01-08T02:42:24.044Z,16.13
2018-01-08T02:47:26.339Z,14.70
2018-01-08T02:52:28.678Z,17.33
2018-01-08T02:57:30.242Z,17.50
2018-01-08T03:02:31.739Z,16.40
2018-01-08T03:07:34.003Z,18.27
2018-01-08T03:12:35.489Z,21.30
2018-01-08T03:17:37.036Z,14.00
2018-01-08T03:22:38.577Z,16.90
2018-01-08T03:27:40.151Z,22.43
2018-01-08T03:32:41.656Z,19.30
2018-01-08T03:37:43.140Z,20.60
2018-01-08T03:42:45.374Z,19.97
2018-01-08T03:47:47.871Z,25.07
2018-01-08T03:52:49.445Z,23.13
2018-01-08T03:57:50.955Z,22.87
2018-01-08T04:02:53.299Z,26.83
2018-01-08T04:07:54.993Z,22.60
2018-01-08T04:12:56.484Z,24.37
2018-01-08T04:17:58.887Z,28.07
2018-01-08T04:23:00.397Z,30.00
2018-01-08T04:28:01.986Z,26.13
2018-01-08T04:33:03.493Z,29.03
2018-01-08T04:38:05.003Z,26.77
2018-01-08T04:43:06.540Z,27.33
2018-01-08T04:48:08.101Z,33.03
2018-01-08T04:53:10.206Z,21.83
2018-01-08T04:58:12.751Z,24.87
2018-01-08T05:03:15.057Z,27.40
2018-01-08T05:08:17.601Z,27.37
2018-01-08T05:13:19.157Z,32.80
2018-01-08T05:18:20.678Z,31.30
2018-01-08T05:23:22.250Z,31.37
2018-01-08T05:28:23.988Z,35.20
2018-01-08T05:33:26.294Z,37.40
2018-01-08T05:38:27.849Z,31.60
2018-01-08T05:43:30.649Z,40.67
2018-01-08T05:48:32.920Z,33.17
2018-01-08T05:53:34.498Z,36.30
2018-01-08T05:58:36.741Z,40.93
2018-01-08T06:03:39.188Z,37.63
2018-01-08T06:08:40.734Z,39.17
2018-01-08T06:13:43.816Z,44.50
2018-01-08T06:18:46.153Z,34.27
2018-01-08T06:23:47.699Z,32.27
2018-01-08T06:28:50.056Z,38.33
2018-01-08T06:33:52.483Z,34.23
2018-01-08T06:39:02.380Z,36.23
2018-01-08T06:44:03.885Z,33.53
2018-01-08T06:49:05.997Z,35.90
2018-01-08T06:54:07.554Z,34.70
2018-01-08T06:59:09.930Z,35.00
2018-01-08T07:04:13.302Z,35.50
2018-01-08T07:09:14.928Z,30.90
2018-01-08T07:14:17.299Z,34.20
2018-01-08T07:19:21.009Z,40.73
2018-01-08T07:24:24.993Z,30.63
2018-01-08T07:29:27.123Z,36.63
2018-01-08T07:34:28.761Z,37.07
2018-01-08T07:39:31.022Z,34.77
2018-01-08T07:44:32.545Z,36.83
2018-01-08T07:49:35.051Z,36.27
2018-01-08T07:54:37.332Z,39.40
2018-01-08T07:59:40.615Z,40.07
2018-01-08T08:04:43.752Z,38.83
2018-01-08T08:09:48.303Z,35.80
2018-01-08T08:14:49.980Z,38.63
2018-01-08T08:19:52.012Z,47.17
2018-01-08T08:24:53.591Z,32.10
2018-01-08T08:29:55.203Z,33.50
2018-01-08T08:34:56.859Z,35.47
2018-01-08T08:39:59.026Z,37.90
2018-01-08T08:45:01.298Z,34.67
2018-01-08T08:50:02.864Z,32.63
2018-01-08T08:55:04.560Z,40.07
2018-01-08T09:00:06.092Z,37.50
2018-01-08T09:05:07.654Z,38.87
2018-01-08T09:10:09.478Z,39.40
2018-01-08T09:15:11.040Z,36.10
2018-01-08T09:20:12.596Z,31.83
2018-01-08T09:25:14.897Z,32.27
2018-01-08T09:30:17.125Z,38.57
2018-01-08T09:35:19.359Z,38.27
2018-01-08T09:40:21.667Z,35.13
2018-01-08T09:45:23.243Z,33.13
2018-01-08T09:50:26.040Z,33.67
2018-01-08T09:55:28.251Z,38.17
2018-01-08T10:00:29.945Z,35.03
2018-01-08T10:05:50.554Z,39.33
2018-01-08T10:11:10.584Z,36.67
2018-01-08T10:16:30.616Z,34.90
2018-01-08T10:21:32.635Z,33.83
2018-01-08T10:26:34.210Z,38.30
2018-01-08T10:31:35.829Z,36.73
2018-01-08T10:36:37.404Z,36.53
2018-01-08T10:41:46.581Z,31.07
2018-01-08T10:46:54.724Z,29.97
2018-01-08T10:51:56.897Z,34.70
2018-01-08T10:56:58.708Z,38.47
2018-01-08T11:02:06.387Z,34.07
2018-01-08T11:07:08.681Z,28.47
2018-01-08T11:12:10.947Z,38.43
2018-01-08T11:17:12.461Z,33.47
2018-01-08T11:22:14.307Z,35.40
2018-01-08T11:27:16.568Z,38.03
2018-01-08T11:32:18.301Z,36.53
2018-01-08T11:37:20.000Z,37.07
2018-01-08T11:42:21.521Z,33.07
2018-01-08T11:47:23.050Z,36.80
2018-01-08T11:52:24.587Z,29.63
2018-01-08T11:57:26.108Z,32.87
2018-01-08T12:02:28.357Z,29.63
2018-01-08T12:07:29.879Z,32.90
2018-01-08T12:12:31.413Z,33.83
2018-01-08T12:17:33.630Z,36.97
2018-01-08T12:22:35.184Z,32.57
2018-01-08T12:27:36.739Z,36.27
2018-01-08T12:32:39.010Z,37.30
2018-01-08T12:37:40.604Z,37.13
2018-01-08T12:42:42.180Z,33.30
2018-01-08T12:47:43.683Z,36.47
2018-01-08T12:52:45.274Z,36.83
2018-01-08T12:57:46.847Z,37.37
2018-01-08T13:02:48.510Z,35.33
2018-01-08T13:07:50.012Z,35.90
2018-01-08T13:12:52.393Z,35.50
2018-01-08T13:17:54.906Z,26.57
2018-01-08T13:22:56.703Z,31.87
2018-01-08T13:27:58.245Z,26.93
2018-01-08T13:32:59.975Z,29.40
2018-01-08T13:38:01.514Z,30.70
2018-01-08T13:43:03.082Z,32.90
2018-01-08T13:48:04.675Z,29.87
2018-01-08T13:53:06.189Z,29.33
2018-01-08T13:58:07.716Z,26.50
2018-01-08T14:03:09.248Z,28.83
2018-01-08T14:08:10.774Z,31.43
2018-01-08T14:13:13.116Z,27.30
2018-01-08T14:18:14.688Z,30.13
2018-01-08T14:23:16.212Z,29.63
2018-01-08T14:28:17.759Z,26.93
2018-01-08T14:33:20.042Z,29.00
2018-01-08T14:38:29.293Z,32.63
2018-01-08T14:43:31.632Z,30.00
2018-01-08T14:48:33.276Z,28.60
2018-01-08T14:53:34.854Z,28.47
2018-01-08T14:58:36.435Z,29.60
2018-01-08T15:03:37.970Z,28.73
2018-01-08T15:08:39.484Z,21.93
2018-01-08T15:13:41.022Z,28.77
2018-01-08T15:18:42.683Z,33.10
2018-01-08T15:23:44.238Z,35.23
2018-01-08T15:28:45.774Z,36.43
2018-01-08T15:33:47.424Z,30.13
2018-01-08T15:38:49.073Z,28.97
2018-01-08T15:43:50.664Z,31.20
2018-01-08T15:48:52.203Z,41.97
2018-01-08T15:53:53.796Z,31.97
2018-01-08T15:58:55.353Z,39.70
2018-01-08T16:03:56.910Z,37.87
2018-01-08T16:08:58.491Z,39.50
2018-01-08T16:14:00.050Z,30.23
2018-01-08T16:19:01.790Z,36.93
2018-01-08T16:24:03.384Z,36.87
2018-01-08T16:29:04.961Z,37.60
2018-01-08T16:34:06.516Z,35.80
2018-01-08T16:39:08.046Z,33.87
2018-01-08T16:44:10.402Z,30.50
2018-01-08T16:49:12.114Z,31.20
2018-01-08T16:54:15.215Z,32.70
2018-01-08T16:59:17.564Z,35.10
2018-01-08T17:04:19.168Z,29.57
2018-01-08T17:09:21.508Z,34.03
2018-01-08T17:14:23.172Z,32.40
2018-01-08T17:19:24.715Z,32.43
2018-01-08T17:24:26.331Z,29.80
2018-01-08T17:29:27.936Z,35.70
2018-01-08T17:34:30.271Z,32.70
2018-01-08T17:39:38.945Z,34.63
2018-01-08T17:44:41.336Z,31.63
2018-01-08T17:49:42.982Z,38.23
2018-01-08T17:54:44.509Z,38.83
2018-01-08T17:59:46.145Z,33.53
2018-01-08T18:04:48.491Z,30.03
2018-01-08T18:09:50.158Z,34.53
2018-01-08T18:14:51.854Z,34.10
2018-01-08T18:19:53.384Z,33.07
2018-01-08T18:24:54.910Z,42.33
2018-01-08T18:29:57.285Z,30.07
2018-01-08T18:34:58.741Z,33.53
2018-01-08T18:40:00.456Z,32.93
2018-01-08T18:45:02.216Z,38.83
2018-01-08T18:50:04.564Z,27.87
2018-01-08T18:55:06.096Z,35.83
2018-01-08T19:00:07.750Z,33.93
2018-01-08T19:05:09.229Z,30.50
2018-01-08T19:10:10.853Z,38.93
2018-01-08T19:15:12.566Z,33.80
2018-01-08T19:20:14.152Z,31.50
2018-01-08T19:25:15.711Z,28.60
2018-01-08T19:30:17.302Z,34.00
2018-01-08T19:35:18.909Z,40.67
2018-01-08T19:40:21.274Z,35.13
2018-01-08T19:45:22.864Z,33.90
2018-01-08T19:50:25.172Z,30.90
2018-01-08T19:55:27.496Z,30.07
2018-01-08T20:00:29.120Z,35.07
2018-01-08T20:05:30.979Z,36.70
2018-01-08T20:10:33.180Z,31.47
2018-01-08T20:15:34.708Z,34.60
2018-01-08T20:20:36.412Z,35.63
2018-01-08T20:25:38.083Z,30.17
2018-01-08T20:30:40.382Z,34.43
2018-01-08T20:35:42.603Z,29.63
2018-01-08T20:40:44.208Z,26.87
2018-01-08T20:45:46.522Z,30.93
2018-01-08T20:50:48.334Z,30.80
2018-01-08T20:55:49.918Z,29.07
2018-01-08T21:00:51.429Z,24.40
2018-01-08T21:05:52.962Z,32.77
2018-01-08T21:10:54.454Z,28.13
2018-01-08T21:15:56.830Z,29.30
2018-01-08T21:20:59.211Z,27.50
2018-01-08T21:26:00.871Z,29.57
2018-01-08T21:31:02.472Z,32.20
2018-01-08T21:36:04.794Z,32.20
2018-01-08T21:41:06.339Z,30.17
2018-01-08T21:46:07.922Z,27.33
2018-01-08T21:51:09.616Z,28.77
2018-01-08T21:56:11.136Z,28.53
2018-01-08T22:01:12.683Z,25.03
2018-01-08T22:06:15.061Z,25.67
2018-01-08T22:11:16.638Z,34.20
2018-01-08T22:16:19.748Z,27.23
2018-01-08T22:21:22.088Z,25.87
2018-01-08T22:26:23.632Z,34.60
2018-01-08T22:31:25.253Z,29.20
2018-01-08T22:36:26.868Z,23.60
2018-01-08T22:41:28.412Z,25.43
2018-01-08T22:46:30.811Z,32.90
2018-01-08T22:51:39.660Z,31.30
2018-01-08T22:56:41.260Z,26.57
2018-01-08T23:01:43.103Z,24.67
2018-01-08T23:06:44.708Z,24.67
2018-01-08T23:11:46.241Z,23.50
2018-01-08T23:16:47.741Z,25.87
2018-01-08T23:21:49.432Z,27.00
2018-01-08T23:26:51.082Z,25.07
2018-01-08T23:31:59.844Z,25.93
2018-01-08T23:37:01.421Z,23.50
2018-01-08T23:42:02.987Z,31.50
2018-01-08T23:47:05.160Z,19.57
2018-01-08T23:52:06.706Z,24.60
2018-01-08T23:57:08.262Z,23.97
